Time;durP1;ratioP1;P1;durP2;ratioP2;P2;SDS_P1;SDS_P2;PMS_P1;PMS_P2;Temp;Humidity;BMP_temperature;BMP_pressure;BME280_temperature;BME280_humidity;BME280_pressure;Samples;Min_cycle;Max_cycle;Signal;HPM_P1;HPM_P2
2022/09/18 00:01:16;;;;;;;;;;;12.80;99.90;;;;;;5037244;28;19975;-83
2022/09/18 00:03:42;;;;;;;;;;;12.80;99.90;;;;;;5036118;28;19925;-81
2022/09/18 00:06:18;;;;;;;;;;;12.90;99.90;;;;;;5053062;28;19991;-83
2022/09/18 00:08:43;;;;;;;;;;;12.80;99.90;;;;;;5037190;28;20016;-83
2022/09/18 00:11:10;;;;;;;;;;;12.80;99.90;;;;;;5036298;28;19972;-83
2022/09/18 00:13:36;;;;;;;;;;;12.70;99.90;;;;;;5036526;28;20306;-84
2022/09/18 00:16:02;;;;;;;;;;;12.60;99.90;;;;;;5035619;28;19925;-84
2022/09/18 00:18:28;;;;;;;;;;;12.60;99.90;;;;;;5036127;28;19925;-83
2022/09/18 00:20:53;;;;;;;;;;;12.60;99.90;;;;;;5019750;28;19925;-82
2022/09/18 00:23:19;;;;;;;;;;;12.70;99.90;;;;;;5036508;28;19976;-84
2022/09/18 00:25:44;;;;;;;;;;;12.70;99.90;;;;;;5019182;28;19925;-82
2022/09/18 00:28:10;;;;;;;;;;;12.70;99.90;;;;;;5053172;28;19928;-83
2022/09/18 00:30:36;;;;;;;;;;;12.70;99.90;;;;;;5019736;28;19990;-82
2022/09/18 00:33:01;;;;;;;;;;;12.80;99.90;;;;;;5036022;28;19925;-81
2022/09/18 00:35:27;;;;;;;;;;;12.90;99.90;;;;;;5053435;28;20011;-81
2022/09/18 00:37:52;;;;;;;;;;;12.90;99.90;;;;;;5052549;28;20278;-80
2022/09/18 00:40:18;;;;;;;;;;;12.90;99.90;;;;;;5052736;28;20384;-80
2022/09/18 00:42:43;;;;;;;;;;;13.00;99.90;;;;;;5036158;28;20315;-80
2022/09/18 00:45:09;;;;;;;;;;;13.00;99.90;;;;;;5035962;28;19925;-82
2022/09/18 00:47:43;;;;;;;;;;;13.00;99.90;;;;;;5052807;28;19925;-82
2022/09/18 00:50:11;;;;;;;;;;;13.00;99.90;;;;;;5036766;28;20319;-84
2022/09/18 00:52:49;;;;;;;;;;;13.10;99.90;;;;;;5035908;28;19932;-81
2022/09/18 00:55:15;;;;;;;;;;;13.10;99.90;;;;;;5035907;28;20015;-82
2022/09/18 00:57:44;;;;;;;;;;;13.10;99.90;;;;;;5019385;28;19992;-82
2022/09/18 01:00:13;;;;;;;;;;;13.10;99.90;;;;;;5052125;28;19925;-83
2022/09/18 01:02:43;;;;;;;;;;;13.10;99.90;;;;;;5052636;28;19931;-81
2022/09/18 01:05:08;;;;;;;;;;;13.10;99.90;;;;;;5052436;28;19975;-82
2022/09/18 01:07:40;;;;;;;;;;;13.00;99.90;;;;;;5052366;28;20022;-81
2022/09/18 01:10:06;;;;;;;;;;;13.00;99.90;;;;;;5052688;28;19994;-80
2022/09/18 01:12:37;;;;;;;;;;;13.00;99.90;;;;;;5035759;28;20369;-82
2022/09/18 01:15:26;;;;;;;;;;;13.00;99.90;;;;;;5052542;28;19929;-83
2022/09/18 01:18:14;;;;;;;;;;;13.10;99.90;;;;;;5035293;28;19924;-79
2022/09/18 01:20:48;;;;;;;;;;;13.10;99.90;;;;;;5035969;28;19970;-82
2022/09/18 01:23:32;;;;;;;;;;;13.20;99.90;;;;;;5035904;28;19925;-81
2022/09/18 01:26:17;;;;;;;;;;;13.10;99.90;;;;;;5034934;28;19928;-82
2022/09/18 01:29:04;;;;;;;;;;;13.00;99.90;;;;;;5055310;28;19936;-81
2022/09/18 01:31:32;;;;;;;;;;;12.80;99.90;;;;;;5039587;28;19932;-81
2022/09/18 01:34:00;;;;;;;;;;;12.80;99.90;;;;;;5056217;28;19932;-82
2022/09/18 01:36:28;;;;;;;;;;;12.70;99.90;;;;;;5055589;28;19974;-83
2022/09/18 01:38:58;;;;;;;;;;;12.80;99.90;;;;;;5039194;28;19925;-80
2022/09/18 01:41:25;;;;;;;;;;;12.80;99.90;;;;;;5055784;28;19931;-80
2022/09/18 01:43:57;;;;;;;;;;;12.80;99.90;;;;;;5039295;28;19932;-83
2022/09/18 01:46:23;;;;;;;;;;;12.90;99.90;;;;;;5038784;28;20372;-77
2022/09/18 01:48:52;;;;;;;;;;;13.00;99.90;;;;;;5055603;28;19931;-82
2022/09/18 01:51:36;;;;;;;;;;;13.10;99.90;;;;;;5056317;28;19925;-82
2022/09/18 01:54:05;;;;;;;;;;;13.10;99.90;;;;;;5039613;28;20356;-80
2022/09/18 01:56:40;;;;;;;;;;;13.00;99.90;;;;;;5038942;28;19951;-81
2022/09/18 01:59:09;;;;;;;;;;;12.60;99.90;;;;;;5055253;28;20296;-81
2022/09/18 02:01:35;;;;;;;;;;;12.30;99.90;;;;;;5055126;28;19925;-83
2022/09/18 02:04:07;;;;;;;;;;;12.10;99.90;;;;;;5038920;28;19940;-84
2022/09/18 02:06:40;;;;;;;;;;;12.00;99.90;;;;;;5055301;28;19944;-83
2022/09/18 02:09:07;;;;;;;;;;;11.90;99.90;;;;;;5039413;28;20264;-84
2022/09/18 02:11:33;;;;;;;;;;;11.80;99.90;;;;;;5054877;28;20008;-83
2022/09/18 02:14:06;;;;;;;;;;;11.80;99.90;;;;;;5022784;28;19924;-83
2022/09/18 02:16:42;;;;;;;;;;;11.70;99.90;;;;;;5038485;28;19925;-83
2022/09/18 02:19:12;;;;;;;;;;;11.50;99.90;;;;;;5054886;28;19947;-85
2022/09/18 02:21:39;;;;;;;;;;;11.40;99.90;;;;;;5054962;28;19974;-84
2022/09/18 02:24:08;;;;;;;;;;;11.20;99.90;;;;;;5039085;28;19925;-85
2022/09/18 02:26:34;;;;;;;;;;;11.20;99.90;;;;;;5054983;28;20273;-84
2022/09/18 02:29:01;;;;;;;;;;;11.10;99.90;;;;;;5038253;28;20361;-85
2022/09/18 02:31:27;;;;;;;;;;;11.00;99.90;;;;;;5021847;28;20011;-85
2022/09/18 02:33:53;;;;;;;;;;;11.00;99.90;;;;;;5021814;28;20344;-84
2022/09/18 02:36:36;;;;;;;;;;;11.00;99.90;;;;;;5038437;28;20024;-85
2022/09/18 02:39:04;;;;;;;;;;;11.10;99.90;;;;;;5037823;28;20250;-84
2022/09/18 02:41:44;;;;;;;;;;;11.10;99.90;;;;;;5038259;28;19929;-85
2022/09/18 02:44:28;;;;;;;;;;;11.10;99.90;;;;;;5038313;28;20019;-85
2022/09/18 02:46:58;;;;;;;;;;;11.20;99.90;;;;;;5054556;28;19931;-85
2022/09/18 02:49:26;;;;;;;;;;;11.20;99.90;;;;;;5055271;28;20234;-84
2022/09/18 02:52:02;;;;;;;;;;;11.30;99.90;;;;;;5037751;28;19931;-83
2022/09/18 02:54:40;;;;;;;;;;;11.40;99.90;;;;;;5038495;28;20022;-83
2022/09/18 02:57:29;;;;;;;;;;;11.40;99.90;;;;;;5038045;28;19925;-83
2022/09/18 02:59:57;;;;;;;;;;;11.60;99.90;;;;;;5043458;28;19948;-82
2022/09/18 03:02:24;;;;;;;;;;;11.70;99.90;;;;;;5037971;28;20323;-82
2022/09/18 03:04:50;;;;;;;;;;;11.70;99.90;;;;;;5054184;28;19932;-83
2022/09/18 03:07:16;;;;;;;;;;;11.80;99.90;;;;;;5038221;28;19998;-83
2022/09/18 03:09:42;;;;;;;;;;;11.80;99.90;;;;;;5021085;28;20023;-83
2022/09/18 03:12:07;;;;;;;;;;;11.80;99.90;;;;;;5037501;28;19935;-82
2022/09/18 03:14:34;;;;;;;;;;;11.80;99.90;;;;;;5021137;28;20265;-82
2022/09/18 03:17:00;;;;;;;;;;;11.90;99.90;;;;;;5020996;28;19936;-83
2022/09/18 03:19:25;;;;;;;;;;;11.90;99.90;;;;;;5037030;28;20326;-83
2022/09/18 03:21:51;;;;;;;;;;;11.90;99.90;;;;;;5021202;28;19924;-83
2022/09/18 03:24:18;;;;;;;;;;;12.00;99.90;;;;;;5053870;28;20288;-83
2022/09/18 03:26:44;;;;;;;;;;;12.00;99.90;;;;;;5036608;28;19925;-82
2022/09/18 03:29:10;;;;;;;;;;;12.10;99.90;;;;;;5053591;28;20269;-83
2022/09/18 03:31:36;;;;;;;;;;;12.10;99.90;;;;;;5053678;28;19964;-81
2022/09/18 03:34:02;;;;;;;;;;;12.20;99.90;;;;;;5037200;28;20395;-81
2022/09/18 03:36:27;;;;;;;;;;;12.20;99.90;;;;;;5036860;28;19926;-81
2022/09/18 03:38:53;;;;;;;;;;;12.20;99.90;;;;;;5021001;28;19936;-80
2022/09/18 03:41:18;;;;;;;;;;;12.20;99.90;;;;;;5037525;28;20019;-79
2022/09/18 03:43:44;;;;;;;;;;;12.30;99.90;;;;;;5036804;28;19925;-79
2022/09/18 03:46:09;;;;;;;;;;;12.30;99.90;;;;;;5036758;28;19925;-80
2022/09/18 03:48:35;;;;;;;;;;;12.30;99.90;;;;;;5053294;28;19979;-80
2022/09/18 03:51:00;;;;;;;;;;;12.20;99.90;;;;;;5036230;28;19952;-80
2022/09/18 03:53:26;;;;;;;;;;;12.20;99.90;;;;;;5036303;28;20031;-82
2022/09/18 03:55:52;;;;;;;;;;;12.00;99.90;;;;;;5020152;28;19925;-83
2022/09/18 03:58:17;;;;;;;;;;;12.00;99.90;;;;;;5053333;28;19931;-86
2022/09/18 04:00:43;;;;;;;;;;;11.90;99.90;;;;;;5020374;28;20030;-82
2022/09/18 04:03:09;;;;;;;;;;;11.90;99.90;;;;;;5053101;28;20289;-81
2022/09/18 04:05:35;;;;;;;;;;;11.80;99.90;;;;;;5053081;28;19924;-80
2022/09/18 04:08:04;;;;;;;;;;;11.80;99.90;;;;;;5053259;28;19929;-80
2022/09/18 04:10:30;;;;;;;;;;;11.80;99.90;;;;;;5036374;28;19932;-82
2022/09/18 04:12:56;;;;;;;;;;;11.80;99.90;;;;;;5052988;28;19925;-82
2022/09/18 04:15:21;;;;;;;;;;;11.80;99.90;;;;;;5052970;28;20314;-82
2022/09/18 04:17:47;;;;;;;;;;;11.90;99.90;;;;;;5053162;28;19925;-82
2022/09/18 04:20:13;;;;;;;;;;;11.90;99.90;;;;;;5035863;28;19928;-84
2022/09/18 04:22:38;;;;;;;;;;;12.00;99.90;;;;;;5036260;28;19928;-85
2022/09/18 04:25:04;;;;;;;;;;;12.10;99.90;;;;;;5053048;28;19925;-79
2022/09/18 04:27:30;;;;;;;;;;;12.10;99.90;;;;;;5053096;28;20337;-80
2022/09/18 04:29:55;;;;;;;;;;;12.10;99.90;;;;;;5036180;28;19932;-80
2022/09/18 04:32:21;;;;;;;;;;;12.30;99.90;;;;;;5036121;28;19940;-82
2022/09/18 04:34:46;;;;;;;;;;;12.30;99.90;;;;;;5036032;28;19932;-81
2022/09/18 04:37:12;;;;;;;;;;;12.30;99.90;;;;;;5036020;28;19925;-81
2022/09/18 04:39:38;;;;;;;;;;;12.40;99.90;;;;;;5052341;28;19971;-79
2022/09/18 04:42:03;;;;;;;;;;;12.50;99.90;;;;;;5052549;28;19984;-80
2022/09/18 04:44:29;;;;;;;;;;;12.50;99.90;;;;;;5036099;28;19979;-82
2022/09/18 04:46:55;;;;;;;;;;;12.50;99.90;;;;;;5052808;28;19968;-86
2022/09/18 04:49:20;;;;;;;;;;;12.40;99.90;;;;;;5036021;28;20361;-87
2022/09/18 04:51:46;;;;;;;;;;;12.30;99.90;;;;;;5020194;28;19986;-82
2022/09/18 04:54:11;;;;;;;;;;;12.10;99.90;;;;;;5035871;28;19947;-85
2022/09/18 04:56:37;;;;;;;;;;;11.90;99.90;;;;;;5019756;28;19974;-82
2022/09/18 04:59:02;;;;;;;;;;;11.70;99.90;;;;;;5035863;28;20376;-88
2022/09/18 05:01:28;;;;;;;;;;;11.70;99.90;;;;;;5020902;28;19931;-84
2022/09/18 05:03:54;;;;;;;;;;;11.60;99.90;;;;;;5040598;28;19932;-87
2022/09/18 05:06:19;;;;;;;;;;;11.60;99.90;;;;;;5040380;28;19979;-85
2022/09/18 05:08:45;;;;;;;;;;;11.50;99.90;;;;;;5039811;28;19924;-83
2022/09/18 05:11:11;;;;;;;;;;;11.50;99.90;;;;;;5056288;28;19933;-85
2022/09/18 05:13:38;;;;;;;;;;;11.50;99.90;;;;;;5040002;28;19971;-83
2022/09/18 05:16:03;;;;;;;;;;;11.40;99.90;;;;;;5056205;28;19925;-84
2022/09/18 05:18:29;;;;;;;;;;;11.30;99.90;;;;;;5039133;28;19931;-82
2022/09/18 05:20:55;;;;;;;;;;;11.10;99.90;;;;;;5056200;28;19925;-82
2022/09/18 05:23:20;;;;;;;;;;;11.00;99.90;;;;;;5039479;28;20377;-82
2022/09/18 05:25:46;;;;;;;;;;;11.00;99.90;;;;;;5041104;28;20361;-84
2022/09/18 05:28:14;;;;;;;;;;;11.00;99.90;;;;;;5059291;28;20015;-84
2022/09/18 05:30:39;;;;;;;;;;;11.00;99.90;;;;;;5059575;28;19924;-84
2022/09/18 05:33:06;;;;;;;;;;;11.00;99.90;;;;;;5059103;28;19970;-87
2022/09/18 05:35:33;;;;;;;;;;;11.10;99.90;;;;;;5059593;28;19925;-90
2022/09/18 05:37:59;;;;;;;;;;;11.10;99.90;;;;;;5059706;28;20034;-88
2022/09/18 05:40:29;;;;;;;;;;;11.20;99.90;;;;;;5060167;28;20344;-87
2022/09/18 05:42:55;;;;;;;;;;;11.20;99.90;;;;;;5059458;28;19928;-88
2022/09/18 05:45:21;;;;;;;;;;;11.30;99.90;;;;;;5026181;28;19952;-87
2022/09/18 05:47:54;;;;;;;;;;;11.30;99.90;;;;;;5042690;28;20391;-89
2022/09/18 05:50:20;;;;;;;;;;;11.30;99.90;;;;;;5042876;28;19925;-88
2022/09/18 05:52:46;;;;;;;;;;;11.30;99.90;;;;;;5026648;28;19979;-87
2022/09/18 05:55:11;;;;;;;;;;;11.40;99.90;;;;;;5026143;28;19928;-87
2022/09/18 05:57:37;;;;;;;;;;;11.40;99.90;;;;;;5026069;28;19932;-87
2022/09/18 06:00:03;;;;;;;;;;;11.40;99.90;;;;;;5042232;28;19924;-87
2022/09/18 06:02:29;;;;;;;;;;;11.50;99.90;;;;;;5042486;28;19928;-87
2022/09/18 06:04:54;;;;;;;;;;;11.50;99.90;;;;;;5026042;28;19970;-87
2022/09/18 06:07:20;;;;;;;;;;;11.50;99.90;;;;;;5042424;28;20023;-87
2022/09/18 06:09:46;;;;;;;;;;;11.50;99.90;;;;;;5042432;28;20369;-88
2022/09/18 06:12:11;;;;;;;;;;;11.50;99.90;;;;;;5042148;28;19932;-87
2022/09/18 06:14:37;;;;;;;;;;;11.50;99.90;;;;;;5025900;28;20398;-87
2022/09/18 06:17:03;;;;;;;;;;;11.50;99.90;;;;;;5025822;28;19925;-87
2022/09/18 06:19:28;;;;;;;;;;;11.50;99.90;;;;;;5058673;28;19925;-88
2022/09/18 06:21:54;;;;;;;;;;;11.60;99.90;;;;;;5026309;28;19925;-88
2022/09/18 06:24:20;;;;;;;;;;;11.60;99.90;;;;;;5042423;28;19970;-87
2022/09/18 06:26:47;;;;;;;;;;;11.60;99.90;;;;;;5025173;28;19924;-87
2022/09/18 06:29:12;;;;;;;;;;;11.70;99.90;;;;;;5042007;28;19928;-88
2022/09/18 06:31:38;;;;;;;;;;;11.70;99.90;;;;;;5058406;28;19979;-87
2022/09/18 06:34:03;;;;;;;;;;;11.70;99.90;;;;;;5042001;28;19925;-87
2022/09/18 06:36:29;;;;;;;;;;;11.80;99.90;;;;;;5058691;28;19977;-87
2022/09/18 06:38:55;;;;;;;;;;;11.80;99.90;;;;;;5041555;28;20012;-87
2022/09/18 06:41:22;;;;;;;;;;;11.90;99.90;;;;;;5041581;28;19928;-87
2022/09/18 06:43:50;;;;;;;;;;;11.90;99.90;;;;;;5058210;28;19925;-87
2022/09/18 06:46:16;;;;;;;;;;;12.00;99.90;;;;;;5058299;28;19925;-85
2022/09/18 06:48:41;;;;;;;;;;;12.00;99.90;;;;;;5057846;28;20379;-83
2022/09/18 06:51:08;;;;;;;;;;;12.00;99.90;;;;;;5041403;28;19970;-83
2022/09/18 06:53:34;;;;;;;;;;;11.90;99.90;;;;;;5057763;28;19925;-82
2022/09/18 06:56:02;;;;;;;;;;;11.90;99.90;;;;;;5041082;28;20304;-82
2022/09/18 06:58:27;;;;;;;;;;;11.90;99.90;;;;;;5057497;28;19924;-83
2022/09/18 07:00:53;;;;;;;;;;;11.90;99.90;;;;;;5041303;28;19925;-83
2022/09/18 07:03:18;;;;;;;;;;;11.80;99.90;;;;;;5057575;28;20252;-80
2022/09/18 07:05:44;;;;;;;;;;;11.80;99.90;;;;;;5041111;28;20015;-80
2022/09/18 07:08:10;;;;;;;;;;;11.70;99.90;;;;;;5057526;28;20352;-79
2022/09/18 07:10:36;;;;;;;;;;;11.50;99.90;;;;;;5040582;28;19924;-80
2022/09/18 07:13:02;;;;;;;;;;;11.50;99.90;;;;;;5057320;28;20090;-80
2022/09/18 07:15:28;;;;;;;;;;;11.50;99.90;;;;;;5041360;28;19967;-84
2022/09/18 07:18:00;;;;;;;;;;;11.50;99.90;;;;;;5040960;28;20379;-84
2022/09/18 07:20:26;;;;;;;;;;;11.50;99.90;;;;;;5040660;28;19972;-83
2022/09/18 07:22:53;;;;;;;;;;;11.50;99.90;;;;;;5040727;28;19947;-84
2022/09/18 07:25:18;;;;;;;;;;;11.40;99.90;;;;;;5039457;28;20007;-82
2022/09/18 07:27:44;;;;;;;;;;;11.30;99.90;;;;;;5039847;28;19975;-85
2022/09/18 07:30:10;;;;;;;;;;;11.40;99.90;;;;;;5040456;28;19925;-80
2022/09/18 07:32:35;;;;;;;;;;;11.30;99.90;;;;;;5057649;28;19924;-79
2022/09/18 07:35:01;;;;;;;;;;;11.40;99.90;;;;;;5057665;28;19929;-80
2022/09/18 07:37:26;;;;;;;;;;;11.40;99.90;;;;;;5040280;28;19932;-83
2022/09/18 07:39:52;;;;;;;;;;;11.50;99.90;;;;;;5039980;28;20383;-82
2022/09/18 07:42:18;;;;;;;;;;;11.50;99.90;;;;;;5057534;28;20364;-83
2022/09/18 07:44:43;;;;;;;;;;;11.60;99.90;;;;;;5023898;28;20335;-85
2022/09/18 07:47:10;;;;;;;;;;;11.70;99.90;;;;;;5040068;28;20311;-84
2022/09/18 07:49:37;;;;;;;;;;;11.70;99.90;;;;;;5024066;28;19924;-81
2022/09/18 07:52:03;;;;;;;;;;;11.80;99.90;;;;;;5056622;28;20413;-82
2022/09/18 07:54:29;;;;;;;;;;;11.90;99.90;;;;;;5039979;28;19925;-81
2022/09/18 07:56:55;;;;;;;;;;;11.90;99.90;;;;;;5023686;28;19931;-81
2022/09/18 07:59:20;;;;;;;;;;;11.90;99.90;;;;;;5039806;28;19928;-83
2022/09/18 08:01:47;;;;;;;;;;;11.70;99.90;;;;;;5039846;28;19929;-81
2022/09/18 08:04:12;;;;;;;;;;;11.50;99.90;;;;;;5023448;28;19947;-80
2022/09/18 08:06:38;;;;;;;;;;;11.40;99.90;;;;;;5039967;28;20011;-82
2022/09/18 08:09:03;;;;;;;;;;;11.30;99.90;;;;;;5039736;28;19925;-83
2022/09/18 08:11:29;;;;;;;;;;;11.30;99.90;;;;;;5039981;28;20008;-83
2022/09/18 08:13:55;;;;;;;;;;;11.30;99.90;;;;;;5023310;28;20221;-80
2022/09/18 08:16:20;;;;;;;;;;;11.30;99.90;;;;;;5040354;28;19928;-82
2022/09/18 08:18:46;;;;;;;;;;;11.40;99.90;;;;;;5039389;28;20319;-85
2022/09/18 08:21:12;;;;;;;;;;;11.50;99.90;;;;;;5039785;28;19931;-80
2022/09/18 08:23:37;;;;;;;;;;;11.50;99.90;;;;;;5056050;28;20011;-80
2022/09/18 08:26:03;;;;;;;;;;;11.50;99.90;;;;;;5039371;28;19979;-82
2022/09/18 08:28:29;;;;;;;;;;;11.50;99.90;;;;;;5039453;28;20362;-83
2022/09/18 08:30:58;;;;;;;;;;;11.10;99.90;;;;;;5022773;28;19925;-83
2022/09/18 08:33:24;;;;;;;;;;;11.00;99.90;;;;;;5055998;28;19968;-84
2022/09/18 08:35:50;;;;;;;;;;;10.80;99.90;;;;;;5039175;28;19982;-81
2022/09/18 08:38:15;;;;;;;;;;;10.70;99.90;;;;;;5022770;28;20253;-81
2022/09/18 08:40:41;;;;;;;;;;;10.70;99.90;;;;;;5055918;28;19929;-84
2022/09/18 08:43:25;;;;;;;;;;;10.80;99.90;;;;;;5039564;28;19931;-81
2022/09/18 08:45:55;;;;;;;;;;;10.80;99.90;;;;;;5039235;28;19929;-82
2022/09/18 08:48:26;;;;;;;;;;;10.80;99.90;;;;;;5055795;28;20404;-82
2022/09/18 08:51:03;;;;;;;;;;;10.90;99.90;;;;;;5056111;28;19925;-82
2022/09/18 08:53:35;;;;;;;;;;;11.00;99.90;;;;;;5055507;28;19928;-82
2022/09/18 08:56:03;;;;;;;;;;;11.00;99.90;;;;;;5055815;28;19929;-82
2022/09/18 08:58:39;;;;;;;;;;;11.10;99.90;;;;;;5055790;28;19975;-83
2022/09/18 09:01:07;;;;;;;;;;;11.20;99.90;;;;;;5039145;28;19928;-84
2022/09/18 09:03:57;;;;;;;;;;;11.30;99.90;;;;;;5039357;28;20029;-85
2022/09/18 09:06:41;;;;;;;;;;;11.30;99.90;;;;;;5039957;28;19997;-83
2022/09/18 09:09:10;;;;;;;;;;;11.30;99.90;;;;;;5039310;28;20021;-84
2022/09/18 09:11:43;;;;;;;;;;;11.40;99.90;;;;;;5056399;28;19947;-84
2022/09/18 09:14:18;;;;;;;;;;;11.40;99.90;;;;;;5056482;28;19924;-83
2022/09/18 09:16:54;;;;;;;;;;;11.40;99.90;;;;;;5056283;28;20027;-83
2022/09/18 09:19:27;;;;;;;;;;;11.40;99.90;;;;;;5038658;28;19932;-84
2022/09/18 09:22:02;;;;;;;;;;;11.50;99.90;;;;;;5039001;28;19930;-84
2022/09/18 09:24:31;;;;;;;;;;;11.50;99.90;;;;;;5055857;28;20054;-84
2022/09/18 09:26:57;;;;;;;;;;;11.50;99.90;;;;;;5055012;28;19951;-84
2022/09/18 09:29:28;;;;;;;;;;;11.50;99.90;;;;;;5056296;28;20070;-83
2022/09/18 09:32:03;;;;;;;;;;;11.50;99.90;;;;;;5039178;28;19924;-85
2022/09/18 09:34:31;;;;;;;;;;;11.60;99.90;;;;;;5056247;28;19924;-85
2022/09/18 09:36:57;;;;;;;;;;;11.60;99.90;;;;;;5039525;28;20246;-83
2022/09/18 09:39:26;;;;;;;;;;;11.60;99.90;;;;;;5038851;28;20019;-83
2022/09/18 09:41:58;;;;;;;;;;;11.70;99.90;;;;;;5055047;28;20246;-83
2022/09/18 09:44:28;;;;;;;;;;;11.70;99.90;;;;;;5055746;28;19924;-84
2022/09/18 09:46:59;;;;;;;;;;;11.90;99.90;;;;;;5055390;28;20356;-87
2022/09/18 09:49:30;;;;;;;;;;;12.00;99.90;;;;;;5058880;28;19951;-86
2022/09/18 09:51:56;;;;;;;;;;;12.20;99.90;;;;;;5042331;28;20020;-82
2022/09/18 09:54:22;;;;;;;;;;;12.20;99.90;;;;;;5059073;28;19979;-86
2022/09/18 09:57:00;;;;;;;;;;;12.40;99.90;;;;;;5058749;28;19925;-83
2022/09/18 09:59:33;;;;;;;;;;;12.50;99.90;;;;;;5041836;28;19994;-84
2022/09/18 10:02:31;;;;;;;;;;;12.50;99.90;;;;;;5042576;28;19924;-81
2022/09/18 10:04:57;;;;;;;;;;;12.60;99.90;;;;;;5025922;28;20271;-83
2022/09/18 10:07:29;;;;;;;;;;;12.70;99.90;;;;;;5042115;28;19924;-81
2022/09/18 10:09:55;;;;;;;;;;;12.70;99.90;;;;;;5041736;28;19931;-83
2022/09/18 10:12:44;;;;;;;;;;;12.90;99.90;;;;;;5041591;28;19928;-80
2022/09/18 10:15:15;;;;;;;;;;;12.90;99.90;;;;;;5050260;28;19924;-81
2022/09/18 10:17:42;;;;;;;;;;;12.90;99.90;;;;;;5042005;28;20364;-82
2022/09/18 10:20:13;;;;;;;;;;;12.90;99.90;;;;;;5042270;28;19967;-82
2022/09/18 10:22:39;;;;;;;;;;;13.00;99.90;;;;;;5058559;28;19931;-82
2022/09/18 10:25:12;;;;;;;;;;;13.00;99.90;;;;;;5026033;28;19925;-82
2022/09/18 10:27:37;;;;;;;;;;;13.00;99.90;;;;;;5035375;28;19925;-82
2022/09/18 10:30:13;;;;;;;;;;;13.10;99.90;;;;;;5034961;28;19925;-82
2022/09/18 10:32:42;;;;;;;;;;;13.10;99.90;;;;;;5035656;28;19925;-83
2022/09/18 10:35:26;;;;;;;;;;;13.10;99.90;;;;;;5034801;28;19925;-83
2022/09/18 10:37:52;;;;;;;;;;;13.20;99.90;;;;;;5034752;28;19929;-83
2022/09/18 10:40:31;;;;;;;;;;;13.20;99.90;;;;;;5034647;28;20020;-83
2022/09/18 10:42:57;;;;;;;;;;;13.20;99.90;;;;;;5018246;28;19925;-83
2022/09/18 10:45:24;;;;;;;;;;;13.30;99.90;;;;;;5034657;28;20422;-82
2022/09/18 10:48:01;;;;;;;;;;;13.30;99.90;;;;;;5034605;28;20361;-82
2022/09/18 10:50:27;;;;;;;;;;;13.30;99.90;;;;;;5035419;28;19925;-83
2022/09/18 10:52:53;;;;;;;;;;;13.30;99.90;;;;;;5034422;28;19925;-82
2022/09/18 10:55:19;;;;;;;;;;;13.30;99.90;;;;;;5018075;28;19932;-83
2022/09/18 10:57:57;;;;;;;;;;;13.40;99.90;;;;;;5017910;28;19925;-83
2022/09/18 11:00:28;;;;;;;;;;;13.40;99.90;;;;;;5017343;28;20416;-82
2022/09/18 11:02:55;;;;;;;;;;;13.50;99.90;;;;;;5034614;28;20050;-83
2022/09/18 11:05:22;;;;;;;;;;;13.50;99.90;;;;;;5034283;28;20396;-82
2022/09/18 11:07:53;;;;;;;;;;;13.60;99.90;;;;;;5018057;28;19983;-83
2022/09/18 11:10:21;;;;;;;;;;;13.70;99.90;;;;;;5017971;28;20258;-80
2022/09/18 11:12:48;;;;;;;;;;;13.70;99.90;;;;;;5018395;28;19925;-81
2022/09/18 11:15:15;;;;;;;;;;;13.70;99.90;;;;;;5034170;28;19995;-83
2022/09/18 11:17:46;;;;;;;;;;;13.80;99.90;;;;;;5017471;28;19929;-84
2022/09/18 11:20:20;;;;;;;;;;;13.80;99.90;;;;;;5034219;28;20336;-81
2022/09/18 11:22:46;;;;;;;;;;;13.80;99.90;;;;;;5017453;28;19925;-83
2022/09/18 11:25:17;;;;;;;;;;;13.80;99.90;;;;;;5016961;28;20415;-83
2022/09/18 11:27:51;;;;;;;;;;;13.90;99.90;;;;;;5032709;28;19925;-83
2022/09/18 11:30:20;;;;;;;;;;;13.90;99.90;;;;;;5037364;28;20015;-82
2022/09/18 11:32:46;;;;;;;;;;;13.90;99.90;;;;;;5053670;28;19925;-83
2022/09/18 11:35:17;;;;;;;;;;;13.90;99.90;;;;;;5037105;28;19932;-82
2022/09/18 11:37:58;;;;;;;;;;;13.80;99.90;;;;;;5037771;28;20011;-82
2022/09/18 11:40:23;;;;;;;;;;;13.90;99.90;;;;;;5036825;28;20011;-81
2022/09/18 11:42:51;;;;;;;;;;;13.90;99.90;;;;;;5036836;28;20011;-82
2022/09/18 11:45:19;;;;;;;;;;;13.90;99.90;;;;;;5053456;28;20023;-82
2022/09/18 11:47:50;;;;;;;;;;;13.90;99.90;;;;;;5036954;28;20011;-82
2022/09/18 11:50:21;;;;;;;;;;;13.90;99.90;;;;;;5036878;28;19925;-81
2022/09/18 11:52:49;;;;;;;;;;;13.90;99.90;;;;;;5037493;28;19925;-80
2022/09/18 11:55:44;;;;;;;;;;;14.00;99.90;;;;;;5036987;28;19924;-82
2022/09/18 11:58:30;;;;;;;;;;;14.00;99.90;;;;;;5019976;28;20289;-83
2022/09/18 12:01:01;;;;;;;;;;;14.00;99.90;;;;;;5036441;28;19994;-84
2022/09/18 12:03:28;;;;;;;;;;;14.00;99.90;;;;;;5053228;28;19925;-85
2022/09/18 12:05:56;;;;;;;;;;;14.00;99.90;;;;;;5053137;28;19978;-81
2022/09/18 12:08:22;;;;;;;;;;;13.90;99.90;;;;;;5053061;28;19925;-82
2022/09/18 12:10:47;;;;;;;;;;;13.90;99.90;;;;;;5052493;28;19932;-85
2022/09/18 12:13:25;;;;;;;;;;;13.80;99.90;;;;;;5036652;28;19925;-84
2022/09/18 12:16:06;;;;;;;;;;;13.70;99.90;;;;;;5036288;28;19928;-84
2022/09/18 12:18:47;;;;;;;;;;;13.60;99.90;;;;;;5053150;28;19929;-83
2022/09/18 12:21:14;;;;;;;;;;;13.50;99.90;;;;;;5036143;28;19925;-83
2022/09/18 12:23:41;;;;;;;;;;;13.40;99.90;;;;;;5053076;28;19925;-83
2022/09/18 12:26:10;;;;;;;;;;;13.40;99.90;;;;;;5038412;28;20280;-82
2022/09/18 12:28:36;;;;;;;;;;;13.40;99.90;;;;;;5039816;28;19978;-84
2022/09/18 12:31:14;;;;;;;;;;;13.40;99.90;;;;;;5056087;28;19975;-81
2022/09/18 12:33:42;;;;;;;;;;;13.50;99.90;;;;;;5039711;28;19971;-80
2022/09/18 12:36:20;;;;;;;;;;;13.60;99.90;;;;;;5039626;28;19948;-81
2022/09/18 12:39:08;;;;;;;;;;;13.70;99.90;;;;;;5038929;28;20387;-84
2022/09/18 12:41:49;;;;;;;;;;;13.80;99.90;;;;;;5040190;28;19976;-81
2022/09/18 12:44:15;;;;;;;;;;;13.80;99.90;;;;;;5056807;28;20224;-80
2022/09/18 12:46:46;;;;;;;;;;;13.80;99.90;;;;;;5056182;28;19928;-82
2022/09/18 12:49:21;;;;;;;;;;;13.90;99.90;;;;;;5055873;28;20018;-81
2022/09/18 12:51:48;;;;;;;;;;;13.90;99.90;;;;;;5056147;28;19928;-79
2022/09/18 12:54:37;;;;;;;;;;;14.00;99.90;;;;;;5055848;28;19924;-80
2022/09/18 12:57:12;;;;;;;;;;;14.10;99.90;;;;;;5011573;28;20334;-81
2022/09/18 12:59:41;;;;;;;;;;;14.10;99.90;;;;;;5055593;28;19925;-83
2022/09/18 13:02:06;;;;;;;;;;;14.20;99.90;;;;;;5056471;28;20001;-81
2022/09/18 13:04:35;;;;;;;;;;;14.20;99.90;;;;;;5056185;28;19970;-82
2022/09/18 13:07:03;;;;;;;;;;;14.20;99.90;;;;;;5055809;28;20322;-78
2022/09/18 13:09:43;;;;;;;;;;;14.20;99.90;;;;;;5039377;28;19974;-80
2022/09/18 13:12:13;;;;;;;;;;;14.10;99.90;;;;;;5039840;28;19947;-82
2022/09/18 13:14:42;;;;;;;;;;;13.90;99.90;;;;;;5039049;28;20368;-80
2022/09/18 13:17:16;;;;;;;;;;;13.80;99.90;;;;;;5056394;28;20010;-80
2022/09/18 13:19:44;;;;;;;;;;;13.70;99.90;;;;;;5055028;28;19929;-82
2022/09/18 13:22:13;;;;;;;;;;;13.70;99.90;;;;;;5055744;28;19925;-82
2022/09/18 13:24:39;;;;;;;;;;;13.80;99.90;;;;;;5059101;28;20019;-81
2022/09/18 13:27:09;;;;;;;;;;;13.90;99.90;;;;;;5058901;28;19968;-86
2022/09/18 13:29:52;;;;;;;;;;;13.90;99.90;;;;;;5042733;28;19978;-82
2022/09/18 13:32:37;;;;;;;;;;;13.90;99.90;;;;;;5042696;28;20372;-82
2022/09/18 13:35:05;;;;;;;;;;;14.00;99.90;;;;;;5060053;28;19932;-82
2022/09/18 13:37:31;;;;;;;;;;;14.00;99.90;;;;;;5043334;28;19975;-80
2022/09/18 13:39:57;;;;;;;;;;;14.10;99.90;;;;;;5026057;28;20366;-83
2022/09/18 13:42:27;;;;;;;;;;;14.10;99.90;;;;;;5042572;28;19972;-84
2022/09/18 13:44:57;;;;;;;;;;;14.20;99.90;;;;;;5059131;28;19931;-81
2022/09/18 13:47:23;;;;;;;;;;;14.20;99.90;;;;;;5059778;28;19929;-80
2022/09/18 13:49:56;;;;;;;;;;;14.30;99.90;;;;;;5042118;28;19973;-84
2022/09/18 13:52:27;;;;;;;;;;;14.20;99.90;;;;;;5042721;28;19924;-81
2022/09/18 13:55:11;;;;;;;;;;;14.10;99.90;;;;;;5058941;28;19924;-78
2022/09/18 13:57:37;;;;;;;;;;;14.10;99.90;;;;;;5058871;28;19925;-82
2022/09/18 14:00:18;;;;;;;;;;;14.00;99.90;;;;;;5058594;28;19924;-81
2022/09/18 14:02:43;;;;;;;;;;;13.90;99.90;;;;;;5042158;28;19924;-79
2022/09/18 14:05:28;;;;;;;;;;;13.90;99.90;;;;;;5041708;28;20034;-83
2022/09/18 14:07:55;;;;;;;;;;;14.00;99.90;;;;;;5058367;28;19924;-80
2022/09/18 14:10:22;;;;;;;;;;;14.00;99.90;;;;;;5058959;28;20314;-79
2022/09/18 14:13:03;;;;;;;;;;;14.00;99.90;;;;;;5059490;28;20015;-80
2022/09/18 14:15:29;;;;;;;;;;;14.00;99.90;;;;;;5042191;28;20347;-81
2022/09/18 14:18:13;;;;;;;;;;;14.10;99.90;;;;;;5025511;28;19983;-83
2022/09/18 14:20:40;;;;;;;;;;;14.40;99.90;;;;;;5057732;28;19931;-80
2022/09/18 14:23:35;;;;;;;;;;;14.70;99.90;;;;;;5058613;28;19924;-80
2022/09/18 14:26:06;;;;;;;;;;;15.00;99.90;;;;;;5004470;28;19929;-81
2022/09/18 14:28:32;;;;;;;;;;;15.30;99.90;;;;;;5058187;28;19930;-80